Аэропорт: Наримановка. Костанай

ICAO: UAUU

METAR:
2018/09/23 11:00
UAUU 231100Z 01005MPS 340V050 CAVOK 18/05 Q1018 R33/CLRD70 NOSIG RMK QFE748/0998
METAR:
2017/12/04 06:03
TAF TAF UAUU 040500Z 0406/0418 20005MPS 6000 SCT006 BKN010CB 
      TEMPO 0407/0415 20012MPS 2000 -SHSN BLSN